sensor_id;sensor_type;location;lat;lon;timestamp;pressure;altitude;pressure_sealevel;temperature;humidity
15817;BME280;8009;50.070;8.232;2023-07-24T00:02:20;99148.63;;;21.98;57.21
15817;BME280;8009;50.070;8.232;2023-07-24T00:04:49;99147.56;;;22.06;57.34
15817;BME280;8009;50.070;8.232;2023-07-24T00:07:17;99138.22;;;21.94;57.50
15817;BME280;8009;50.070;8.232;2023-07-24T00:09:45;99127.88;;;21.76;58.44
15817;BME280;8009;50.070;8.232;2023-07-24T00:12:13;99129.16;;;21.93;57.36
15817;BME280;8009;50.070;8.232;2023-07-24T00:18:16;99123.66;;;21.86;57.84
15817;BME280;8009;50.070;8.232;2023-07-24T00:20:44;99120.69;;;21.88;57.79
15817;BME280;8009;50.070;8.232;2023-07-24T00:23:25;99122.19;;;21.90;57.74
15817;BME280;8009;50.070;8.232;2023-07-24T00:25:53;99116.47;;;21.92;56.61
15817;BME280;8009;50.070;8.232;2023-07-24T00:28:22;99124.09;;;22.03;56.20
15817;BME280;8009;50.070;8.232;2023-07-24T00:30:52;99111.81;;;21.99;56.45
15817;BME280;8009;50.070;8.232;2023-07-24T00:33:24;99118.59;;;21.83;57.17
15817;BME280;8009;50.070;8.232;2023-07-24T00:35:55;99121.59;;;21.27;58.53
15817;BME280;8009;50.070;8.232;2023-07-24T00:38:23;99120.50;;;21.83;56.71
15817;BME280;8009;50.070;8.232;2023-07-24T00:40:52;99125.59;;;21.25;58.80
15817;BME280;8009;50.070;8.232;2023-07-24T00:43:20;99115.78;;;21.63;57.70
15817;BME280;8009;50.070;8.232;2023-07-24T00:45:48;99111.59;;;21.68;58.58
15817;BME280;8009;50.070;8.232;2023-07-24T00:48:17;99106.94;;;21.75;58.11
15817;BME280;8009;50.070;8.232;2023-07-24T00:50:49;99103.31;;;21.41;58.50
15817;BME280;8009;50.070;8.232;2023-07-24T00:53:18;99109.88;;;21.66;58.08
15817;BME280;8009;50.070;8.232;2023-07-24T00:55:48;99112.16;;;21.36;59.54
15817;BME280;8009;50.070;8.232;2023-07-24T00:58:16;99109.84;;;21.40;59.21
15817;BME280;8009;50.070;8.232;2023-07-24T01:00:45;99106.88;;;21.48;58.90
15817;BME280;8009;50.070;8.232;2023-07-24T01:06:26;99114.31;;;21.54;59.21
15817;BME280;8009;50.070;8.232;2023-07-24T01:08:55;99104.59;;;21.58;58.87
15817;BME280;8009;50.070;8.232;2023-07-24T01:11:28;99101.84;;;21.58;59.13
15817;BME280;8009;50.070;8.232;2023-07-24T01:14:01;99100.16;;;21.57;59.02
15817;BME280;8009;50.070;8.232;2023-07-24T01:16:36;99096.25;;;21.18;60.56
15817;BME280;8009;50.070;8.232;2023-07-24T01:19:12;99094.78;;;20.75;60.70
15817;BME280;8009;50.070;8.232;2023-07-24T01:21:56;99081.59;;;20.98;60.49
15817;BME280;8009;50.070;8.232;2023-07-24T01:24:30;99077.50;;;20.74;61.36
15817;BME280;8009;50.070;8.232;2023-07-24T01:27:04;99071.31;;;21.20;59.83
15817;BME280;8009;50.070;8.232;2023-07-24T01:29:32;99074.78;;;21.42;59.26
15817;BME280;8009;50.070;8.232;2023-07-24T01:32:00;99061.22;;;21.27;59.47
15817;BME280;8009;50.070;8.232;2023-07-24T01:34:29;99059.81;;;21.45;58.72
15817;BME280;8009;50.070;8.232;2023-07-24T01:36:57;99065.47;;;21.36;58.92
15817;BME280;8009;50.070;8.232;2023-07-24T01:39:26;99062.91;;;21.22;59.05
15817;BME280;8009;50.070;8.232;2023-07-24T01:41:55;99069.03;;;20.76;60.53
15817;BME280;8009;50.070;8.232;2023-07-24T01:44:26;99071.06;;;20.95;60.72
15817;BME280;8009;50.070;8.232;2023-07-24T01:46:54;99066.28;;;21.30;59.62
15817;BME280;8009;50.070;8.232;2023-07-24T01:52:29;99052.75;;;21.22;59.94
15817;BME280;8009;50.070;8.232;2023-07-24T01:54:54;99048.81;;;21.38;59.52
15817;BME280;8009;50.070;8.232;2023-07-24T01:57:23;99044.31;;;21.30;59.94
15817;BME280;8009;50.070;8.232;2023-07-24T01:59:54;99042.38;;;21.11;60.30
15817;BME280;8009;50.070;8.232;2023-07-24T02:02:23;99038.47;;;21.33;59.87
15817;BME280;8009;50.070;8.232;2023-07-24T02:04:51;99021.53;;;21.30;60.29
15817;BME280;8009;50.070;8.232;2023-07-24T02:07:20;99011.22;;;21.38;59.58
15817;BME280;8009;50.070;8.232;2023-07-24T02:13:07;99015.41;;;20.60;61.50
15817;BME280;8009;50.070;8.232;2023-07-24T02:18:50;99006.75;;;20.21;62.23
15817;BME280;8009;50.070;8.232;2023-07-24T02:21:19;99009.25;;;20.51;61.49
15817;BME280;8009;50.070;8.232;2023-07-24T02:23:49;99013.34;;;20.75;60.58
15817;BME280;8009;50.070;8.232;2023-07-24T02:26:17;99016.72;;;20.36;61.88
15817;BME280;8009;50.070;8.232;2023-07-24T02:28:46;99019.66;;;20.28;62.20
15817;BME280;8009;50.070;8.232;2023-07-24T02:31:14;99013.09;;;20.57;61.04
15817;BME280;8009;50.070;8.232;2023-07-24T02:33:42;99018.56;;;20.57;60.92
15817;BME280;8009;50.070;8.232;2023-07-24T02:36:14;99014.41;;;20.74;61.12
15817;BME280;8009;50.070;8.232;2023-07-24T02:44:36;99020.44;;;20.21;61.82
15817;BME280;8009;50.070;8.232;2023-07-24T02:47:05;99029.16;;;20.32;61.88
15817;BME280;8009;50.070;8.232;2023-07-24T02:49:33;99029.63;;;20.77;60.01
15817;BME280;8009;50.070;8.232;2023-07-24T02:52:05;99026.28;;;20.94;59.60
15817;BME280;8009;50.070;8.232;2023-07-24T02:55:02;99032.34;;;20.83;60.01
15817;BME280;8009;50.070;8.232;2023-07-24T02:57:30;99032.78;;;20.04;62.38
15817;BME280;8009;50.070;8.232;2023-07-24T02:59:59;99033.78;;;20.66;60.42
15817;BME280;8009;50.070;8.232;2023-07-24T03:02:28;99034.91;;;20.85;60.22
15817;BME280;8009;50.070;8.232;2023-07-24T03:04:56;99030.69;;;20.82;60.05
15817;BME280;8009;50.070;8.232;2023-07-24T03:07:27;99019.50;;;20.84;59.74
15817;BME280;8009;50.070;8.232;2023-07-24T03:09:55;99005.53;;;20.79;59.79
15817;BME280;8009;50.070;8.232;2023-07-24T03:12:24;99008.06;;;20.74;60.33
15817;BME280;8009;50.070;8.232;2023-07-24T03:14:52;99007.25;;;20.80;60.19
15817;BME280;8009;50.070;8.232;2023-07-24T03:17:22;99010.16;;;20.72;60.26
15817;BME280;8009;50.070;8.232;2023-07-24T03:19:54;99003.13;;;20.49;61.10
15817;BME280;8009;50.070;8.232;2023-07-24T03:25:41;99000.00;;;20.59;60.64
15817;BME280;8009;50.070;8.232;2023-07-24T03:28:10;98985.16;;;20.47;61.54
15817;BME280;8009;50.070;8.232;2023-07-24T03:30:39;98972.50;;;20.45;61.50
15817;BME280;8009;50.070;8.232;2023-07-24T03:33:07;98972.66;;;20.37;61.26
15817;BME280;8009;50.070;8.232;2023-07-24T03:35:40;98958.69;;;20.26;62.37
15817;BME280;8009;50.070;8.232;2023-07-24T03:38:10;98951.88;;;20.50;60.99
15817;BME280;8009;50.070;8.232;2023-07-24T03:43:51;98943.66;;;20.56;61.06
15817;BME280;8009;50.070;8.232;2023-07-24T03:46:20;98923.78;;;20.48;60.95
15817;BME280;8009;50.070;8.232;2023-07-24T03:48:48;98913.66;;;20.48;61.37
15817;BME280;8009;50.070;8.232;2023-07-24T03:51:19;98890.84;;;20.34;61.37
15817;BME280;8009;50.070;8.232;2023-07-24T03:53:48;98911.03;;;20.20;62.44
15817;BME280;8009;50.070;8.232;2023-07-24T03:56:44;98918.63;;;20.25;62.08
15817;BME280;8009;50.070;8.232;2023-07-24T03:59:15;98935.88;;;20.12;62.86
15817;BME280;8009;50.070;8.232;2023-07-24T04:01:43;98936.50;;;20.07;63.30
15817;BME280;8009;50.070;8.232;2023-07-24T04:04:25;98931.84;;;20.49;61.66
15817;BME280;8009;50.070;8.232;2023-07-24T04:06:54;98928.16;;;20.35;61.58
15817;BME280;8009;50.070;8.232;2023-07-24T04:09:22;98918.66;;;20.31;62.08
15817;BME280;8009;50.070;8.232;2023-07-24T04:11:50;98911.59;;;20.50;61.93
15817;BME280;8009;50.070;8.232;2023-07-24T04:14:22;98919.66;;;20.65;61.44
15817;BME280;8009;50.070;8.232;2023-07-24T04:20:05;98947.16;;;20.37;63.03
15817;BME280;8009;50.070;8.232;2023-07-24T04:22:33;98947.03;;;20.52;61.74
15817;BME280;8009;50.070;8.232;2023-07-24T04:25:02;98939.44;;;20.60;61.58
15817;BME280;8009;50.070;8.232;2023-07-24T04:27:43;98940.91;;;20.56;62.20
15817;BME280;8009;50.070;8.232;2023-07-24T04:33:25;98964.75;;;20.56;61.42
15817;BME280;8009;50.070;8.232;2023-07-24T04:35:54;98959.28;;;20.49;62.12
15817;BME280;8009;50.070;8.232;2023-07-24T04:38:22;98971.06;;;20.56;61.51
15817;BME280;8009;50.070;8.232;2023-07-24T04:40:51;98973.22;;;20.67;61.01
15817;BME280;8009;50.070;8.232;2023-07-24T04:43:20;98979.78;;;20.66;61.23
15817;BME280;8009;50.070;8.232;2023-07-24T04:45:49;98975.53;;;20.64;61.97
15817;BME280;8009;50.070;8.232;2023-07-24T04:48:17;98986.97;;;20.74;61.73
15817;BME280;8009;50.070;8.232;2023-07-24T04:50:53;98985.91;;;20.27;62.47
15817;BME280;8009;50.070;8.232;2023-07-24T05:09:31;98996.28;;;20.86;60.98
15817;BME280;8009;50.070;8.232;2023-07-24T05:12:08;99002.63;;;20.93;61.34
15817;BME280;8009;50.070;8.232;2023-07-24T05:14:36;99003.91;;;20.91;61.71
15817;BME280;8009;50.070;8.232;2023-07-24T05:17:04;98994.63;;;20.92;61.32
15817;BME280;8009;50.070;8.232;2023-07-24T05:19:33;98977.75;;;21.02;61.98
15817;BME280;8009;50.070;8.232;2023-07-24T05:22:13;98974.91;;;20.62;62.17
15817;BME280;8009;50.070;8.232;2023-07-24T05:24:46;98964.88;;;21.02;60.51
15817;BME280;8009;50.070;8.232;2023-07-24T05:27:15;98962.13;;;20.89;61.23
15817;BME280;8009;50.070;8.232;2023-07-24T05:29:43;98957.28;;;21.04;60.90
15817;BME280;8009;50.070;8.232;2023-07-24T05:38:36;98982.63;;;20.04;63.53
15817;BME280;8009;50.070;8.232;2023-07-24T05:41:07;98969.66;;;20.26;62.65
15817;BME280;8009;50.070;8.232;2023-07-24T05:43:35;98974.69;;;20.15;63.23
15817;BME280;8009;50.070;8.232;2023-07-24T05:46:05;98959.09;;;20.57;61.63
15817;BME280;8009;50.070;8.232;2023-07-24T05:48:33;98966.75;;;20.88;60.23
15817;BME280;8009;50.070;8.232;2023-07-24T05:51:01;98964.38;;;20.65;60.69
15817;BME280;8009;50.070;8.232;2023-07-24T05:53:29;98950.28;;;20.82;60.69
15817;BME280;8009;50.070;8.232;2023-07-24T05:55:58;98953.69;;;20.84;60.92
15817;BME280;8009;50.070;8.232;2023-07-24T05:58:30;98955.75;;;20.82;60.99
15817;BME280;8009;50.070;8.232;2023-07-24T06:00:59;98951.13;;;20.89;61.31
15817;BME280;8009;50.070;8.232;2023-07-24T06:03:28;98946.31;;;20.91;61.68
15817;BME280;8009;50.070;8.232;2023-07-24T06:05:56;98950.53;;;21.00;61.14
15817;BME280;8009;50.070;8.232;2023-07-24T06:08:25;98948.84;;;20.99;61.09
15817;BME280;8009;50.070;8.232;2023-07-24T06:10:53;98947.34;;;20.90;61.60
15817;BME280;8009;50.070;8.232;2023-07-24T06:13:21;98948.84;;;21.06;61.06
15817;BME280;8009;50.070;8.232;2023-07-24T06:15:52;98947.16;;;21.05;61.40
15817;BME280;8009;50.070;8.232;2023-07-24T06:18:21;98958.06;;;20.78;61.79
15817;BME280;8009;50.070;8.232;2023-07-24T06:20:52;98946.50;;;20.96;61.77
15817;BME280;8009;50.070;8.232;2023-07-24T06:23:21;98944.19;;;21.00;62.09
15817;BME280;8009;50.070;8.232;2023-07-24T06:25:49;98943.16;;;21.07;61.29
15817;BME280;8009;50.070;8.232;2023-07-24T06:28:18;98935.53;;;21.09;60.46
15817;BME280;8009;50.070;8.232;2023-07-24T06:30:46;98937.25;;;21.10;59.88
15817;BME280;8009;50.070;8.232;2023-07-24T06:33:17;98949.72;;;21.39;59.79
15817;BME280;8009;50.070;8.232;2023-07-24T06:35:46;98938.06;;;20.91;60.40
15817;BME280;8009;50.070;8.232;2023-07-24T06:38:15;98950.97;;;21.30;59.79
15817;BME280;8009;50.070;8.232;2023-07-24T06:40:43;98944.66;;;21.63;58.61
15817;BME280;8009;50.070;8.232;2023-07-24T06:43:11;98950.34;;;21.48;59.42
15817;BME280;8009;50.070;8.232;2023-07-24T06:45:40;98941.25;;;21.14;59.47
15817;BME280;8009;50.070;8.232;2023-07-24T06:48:08;98949.28;;;21.23;59.67
15817;BME280;8009;50.070;8.232;2023-07-24T06:50:39;98937.25;;;21.70;57.84
15817;BME280;8009;50.070;8.232;2023-07-24T06:53:07;98937.66;;;21.67;57.83
15817;BME280;8009;50.070;8.232;2023-07-24T06:55:35;98932.94;;;22.01;57.52
15817;BME280;8009;50.070;8.232;2023-07-24T06:58:04;98938.63;;;22.19;57.41
15817;BME280;8009;50.070;8.232;2023-07-24T07:00:32;98934.84;;;22.07;57.20
15817;BME280;8009;50.070;8.232;2023-07-24T07:03:00;98937.38;;;22.08;56.51
15817;BME280;8009;50.070;8.232;2023-07-24T07:05:29;98936.28;;;22.29;56.29
15817;BME280;8009;50.070;8.232;2023-07-24T07:08:02;98933.44;;;22.49;56.21
15817;BME280;8009;50.070;8.232;2023-07-24T07:10:30;98941.72;;;22.36;56.40
15817;BME280;8009;50.070;8.232;2023-07-24T07:12:59;98948.41;;;21.95;56.31
15817;BME280;8009;50.070;8.232;2023-07-24T07:15:27;98951.53;;;22.25;55.82
15817;BME280;8009;50.070;8.232;2023-07-24T07:17:55;98953.03;;;22.14;55.81
15817;BME280;8009;50.070;8.232;2023-07-24T07:20:24;98953.72;;;21.83;56.17
15817;BME280;8009;50.070;8.232;2023-07-24T07:22:52;98968.53;;;21.62;57.06
15817;BME280;8009;50.070;8.232;2023-07-24T07:25:23;98965.59;;;21.64;56.65
15817;BME280;8009;50.070;8.232;2023-07-24T07:27:51;98958.16;;;21.84;56.49
15817;BME280;8009;50.070;8.232;2023-07-24T07:30:19;98949.69;;;21.86;56.12
15817;BME280;8009;50.070;8.232;2023-07-24T07:32:48;98947.09;;;22.04;56.18
15817;BME280;8009;50.070;8.232;2023-07-24T07:35:16;98938.88;;;22.04;56.51
15817;BME280;8009;50.070;8.232;2023-07-24T07:37:46;98927.22;;;22.09;56.28
15817;BME280;8009;50.070;8.232;2023-07-24T07:40:15;98923.50;;;21.63;56.93
15817;BME280;8009;50.070;8.232;2023-07-24T07:42:46;98923.31;;;21.52;57.65
15817;BME280;8009;50.070;8.232;2023-07-24T07:45:14;98928.56;;;21.80;57.46
15817;BME280;8009;50.070;8.232;2023-07-24T07:47:43;98929.34;;;22.07;57.19
15817;BME280;8009;50.070;8.232;2023-07-24T07:50:11;98929.34;;;22.00;56.62
15817;BME280;8009;50.070;8.232;2023-07-24T07:52:39;98914.31;;;22.16;56.97
15817;BME280;8009;50.070;8.232;2023-07-24T07:55:08;98928.09;;;22.03;56.88
15817;BME280;8009;50.070;8.232;2023-07-24T07:57:37;98916.22;;;22.16;56.52
15817;BME280;8009;50.070;8.232;2023-07-24T08:00:09;98916.16;;;22.35;56.71
15817;BME280;8009;50.070;8.232;2023-07-24T08:02:45;98920.19;;;22.33;56.95
15817;BME280;8009;50.070;8.232;2023-07-24T08:05:13;98916.63;;;22.26;56.08
15817;BME280;8009;50.070;8.232;2023-07-24T08:07:41;98907.69;;;22.37;56.72
15817;BME280;8009;50.070;8.232;2023-07-24T08:10:10;98897.25;;;22.52;56.77
15817;BME280;8009;50.070;8.232;2023-07-24T08:12:40;98894.94;;;22.49;56.89
15817;BME280;8009;50.070;8.232;2023-07-24T08:15:11;98892.75;;;22.58;56.94
15817;BME280;8009;50.070;8.232;2023-07-24T08:17:40;98891.22;;;22.69;56.41
15817;BME280;8009;50.070;8.232;2023-07-24T08:20:08;98911.31;;;22.69;56.06
15817;BME280;8009;50.070;8.232;2023-07-24T08:22:37;98903.41;;;22.48;55.75
15817;BME280;8009;50.070;8.232;2023-07-24T08:25:06;98887.63;;;22.30;55.53
15817;BME280;8009;50.070;8.232;2023-07-24T08:27:35;98886.72;;;22.43;55.34
15817;BME280;8009;50.070;8.232;2023-07-24T08:30:04;98874.56;;;22.95;54.54
15817;BME280;8009;50.070;8.232;2023-07-24T08:32:35;98881.75;;;22.96;54.14
15817;BME280;8009;50.070;8.232;2023-07-24T08:38:25;98874.81;;;22.87;54.92
15817;BME280;8009;50.070;8.232;2023-07-24T08:53:59;98876.31;;;23.83;52.30
15817;BME280;8009;50.070;8.232;2023-07-24T08:59:50;98877.44;;;23.75;52.64
15817;BME280;8009;50.070;8.232;2023-07-24T09:02:22;98868.81;;;23.47;52.33
15817;BME280;8009;50.070;8.232;2023-07-24T09:04:51;98871.50;;;23.78;51.66
15817;BME280;8009;50.070;8.232;2023-07-24T09:07:20;98866.03;;;23.72;52.81
15817;BME280;8009;50.070;8.232;2023-07-24T09:09:51;98862.38;;;23.53;52.58
15817;BME280;8009;50.070;8.232;2023-07-24T09:12:30;98851.59;;;23.51;53.37
15817;BME280;8009;50.070;8.232;2023-07-24T09:15:11;98845.09;;;23.46;52.88
15817;BME280;8009;50.070;8.232;2023-07-24T09:17:48;98838.88;;;23.75;52.82
15817;BME280;8009;50.070;8.232;2023-07-24T09:20:20;98839.59;;;23.64;52.75
15817;BME280;8009;50.070;8.232;2023-07-24T09:22:49;98839.06;;;23.55;52.13
15817;BME280;8009;50.070;8.232;2023-07-24T09:25:29;98829.84;;;23.68;52.14
15817;BME280;8009;50.070;8.232;2023-07-24T09:27:58;98818.09;;;24.10;51.31
15817;BME280;8009;50.070;8.232;2023-07-24T09:30:26;98808.69;;;24.29;51.10
15817;BME280;8009;50.070;8.232;2023-07-24T09:32:55;98788.88;;;24.20;51.53
15817;BME280;8009;50.070;8.232;2023-07-24T09:35:25;98791.91;;;24.30;51.25
15817;BME280;8009;50.070;8.232;2023-07-24T09:38:02;98797.66;;;25.13;48.62
15817;BME280;8009;50.070;8.232;2023-07-24T09:40:40;98801.41;;;25.30;48.56
15817;BME280;8009;50.070;8.232;2023-07-24T09:43:19;98780.94;;;25.66;47.24
15817;BME280;8009;50.070;8.232;2023-07-24T09:45:49;98789.44;;;25.88;47.27
15817;BME280;8009;50.070;8.232;2023-07-24T09:48:18;98783.75;;;25.19;47.07
15817;BME280;8009;50.070;8.232;2023-07-24T09:50:48;98779.75;;;24.92;49.79
15817;BME280;8009;50.070;8.232;2023-07-24T09:53:20;98776.00;;;24.74;48.54
15817;BME280;8009;50.070;8.232;2023-07-24T09:56:00;98767.56;;;24.58;49.09
15817;BME280;8009;50.070;8.232;2023-07-24T09:58:29;98770.44;;;24.63;48.49
15817;BME280;8009;50.070;8.232;2023-07-24T10:00:58;98779.09;;;24.54;47.35
15817;BME280;8009;50.070;8.232;2023-07-24T10:03:27;98791.09;;;24.72;47.78
15817;BME280;8009;50.070;8.232;2023-07-24T10:05:55;98801.88;;;24.50;48.28
15817;BME280;8009;50.070;8.232;2023-07-24T10:08:24;98803.50;;;24.93;47.85
15817;BME280;8009;50.070;8.232;2023-07-24T10:10:56;98799.28;;;24.90;47.68
15817;BME280;8009;50.070;8.232;2023-07-24T10:13:26;98812.22;;;24.66;48.65
15817;BME280;8009;50.070;8.232;2023-07-24T10:15:55;98814.94;;;24.24;49.71
15817;BME280;8009;50.070;8.232;2023-07-24T10:18:26;98811.66;;;24.46;47.81
15817;BME280;8009;50.070;8.232;2023-07-24T10:21:00;98806.97;;;24.76;48.46
15817;BME280;8009;50.070;8.232;2023-07-24T10:23:29;98813.69;;;24.69;47.15
15817;BME280;8009;50.070;8.232;2023-07-24T10:26:05;98807.25;;;24.56;47.38
15817;BME280;8009;50.070;8.232;2023-07-24T10:28:35;98813.69;;;24.69;47.57
15817;BME280;8009;50.070;8.232;2023-07-24T10:31:05;98808.75;;;24.83;48.10
15817;BME280;8009;50.070;8.232;2023-07-24T10:33:35;98803.34;;;24.76;46.98
15817;BME280;8009;50.070;8.232;2023-07-24T10:36:07;98795.22;;;24.81;46.27
15817;BME280;8009;50.070;8.232;2023-07-24T10:38:40;98800.69;;;25.11;45.68
15817;BME280;8009;50.070;8.232;2023-07-24T10:41:12;98802.41;;;24.82;46.98
15817;BME280;8009;50.070;8.232;2023-07-24T10:43:41;98793.41;;;24.87;45.48
15817;BME280;8009;50.070;8.232;2023-07-24T10:46:11;98793.44;;;25.10;45.30
15817;BME280;8009;50.070;8.232;2023-07-24T10:48:44;98798.00;;;25.04;44.03
15817;BME280;8009;50.070;8.232;2023-07-24T10:51:13;98798.09;;;24.98;44.15
15817;BME280;8009;50.070;8.232;2023-07-24T10:53:44;98786.94;;;24.93;42.47
15817;BME280;8009;50.070;8.232;2023-07-24T10:56:16;98793.41;;;24.98;42.01
15817;BME280;8009;50.070;8.232;2023-07-24T10:58:44;98794.81;;;24.66;43.24
15817;BME280;8009;50.070;8.232;2023-07-24T11:01:13;98794.19;;;24.64;43.16
15817;BME280;8009;50.070;8.232;2023-07-24T11:03:42;98789.06;;;24.79;43.39
15817;BME280;8009;50.070;8.232;2023-07-24T11:06:14;98788.34;;;24.72;43.09
15817;BME280;8009;50.070;8.232;2023-07-24T11:08:52;98780.28;;;24.59;44.62
15817;BME280;8009;50.070;8.232;2023-07-24T11:11:27;98785.81;;;24.70;44.63
15817;BME280;8009;50.070;8.232;2023-07-24T11:13:56;98788.50;;;24.77;44.87
15817;BME280;8009;50.070;8.232;2023-07-24T11:16:25;98771.69;;;24.78;45.22
15817;BME280;8009;50.070;8.232;2023-07-24T11:18:57;98782.50;;;25.03;45.70
15817;BME280;8009;50.070;8.232;2023-07-24T11:21:27;98766.56;;;25.17;46.85
15817;BME280;8009;50.070;8.232;2023-07-24T11:23:56;98764.75;;;24.99;47.08
15817;BME280;8009;50.070;8.232;2023-07-24T11:26:27;98757.34;;;25.12;47.28
15817;BME280;8009;50.070;8.232;2023-07-24T11:28:56;98757.78;;;25.32;47.20
15817;BME280;8009;50.070;8.232;2023-07-24T11:31:24;98758.00;;;24.84;47.93
15817;BME280;8009;50.070;8.232;2023-07-24T11:33:53;98758.06;;;25.19;46.34
15817;BME280;8009;50.070;8.232;2023-07-24T11:36:21;98744.72;;;25.16;46.19
15817;BME280;8009;50.070;8.232;2023-07-24T11:38:50;98745.91;;;24.96;47.09
15817;BME280;8009;50.070;8.232;2023-07-24T11:41:18;98748.88;;;25.07;47.17
15817;BME280;8009;50.070;8.232;2023-07-24T11:43:50;98747.50;;;25.68;45.87
15817;BME280;8009;50.070;8.232;2023-07-24T11:46:24;98740.03;;;25.92;44.90
15817;BME280;8009;50.070;8.232;2023-07-24T11:48:53;98737.34;;;26.25;45.22
15817;BME280;8009;50.070;8.232;2023-07-24T11:51:22;98724.41;;;26.14;45.35
15817;BME280;8009;50.070;8.232;2023-07-24T11:53:52;98717.13;;;26.54;45.36
15817;BME280;8009;50.070;8.232;2023-07-24T11:56:20;98717.44;;;26.12;45.25
15817;BME280;8009;50.070;8.232;2023-07-24T11:58:51;98716.81;;;25.93;45.56
15817;BME280;8009;50.070;8.232;2023-07-24T12:01:20;98721.56;;;25.69;45.56
15817;BME280;8009;50.070;8.232;2023-07-24T12:03:48;98715.75;;;25.82;45.25
15817;BME280;8009;50.070;8.232;2023-07-24T12:06:17;98712.34;;;25.51;46.03
15817;BME280;8009;50.070;8.232;2023-07-24T12:08:45;98710.56;;;25.34;45.96
15817;BME280;8009;50.070;8.232;2023-07-24T12:11:17;98699.59;;;26.03;45.41
15817;BME280;8009;50.070;8.232;2023-07-24T12:13:46;98696.66;;;25.81;45.56
15817;BME280;8009;50.070;8.232;2023-07-24T12:16:17;98696.22;;;26.17;45.86
15817;BME280;8009;50.070;8.232;2023-07-24T12:18:45;98682.44;;;26.34;44.73
15817;BME280;8009;50.070;8.232;2023-07-24T12:21:13;98675.59;;;26.54;44.69
15817;BME280;8009;50.070;8.232;2023-07-24T12:23:42;98680.72;;;25.99;45.53
15817;BME280;8009;50.070;8.232;2023-07-24T12:26:10;98680.66;;;26.28;44.16
15817;BME280;8009;50.070;8.232;2023-07-24T12:28:38;98675.38;;;26.27;44.51
15817;BME280;8009;50.070;8.232;2023-07-24T12:31:07;98669.78;;;26.38;44.39
15817;BME280;8009;50.070;8.232;2023-07-24T12:33:38;98681.63;;;26.05;45.57
15817;BME280;8009;50.070;8.232;2023-07-24T12:36:06;98675.81;;;25.90;44.96
15817;BME280;8009;50.070;8.232;2023-07-24T12:38:35;98666.53;;;25.96;44.66
15817;BME280;8009;50.070;8.232;2023-07-24T12:41:03;98668.28;;;25.85;45.46
15817;BME280;8009;50.070;8.232;2023-07-24T12:43:31;98662.69;;;25.68;45.31
15817;BME280;8009;50.070;8.232;2023-07-24T12:45:59;98663.59;;;25.74;46.37
15817;BME280;8009;50.070;8.232;2023-07-24T12:48:28;98659.22;;;25.61;46.09
15817;BME280;8009;50.070;8.232;2023-07-24T12:50:59;98661.00;;;25.96;45.82
15817;BME280;8009;50.070;8.232;2023-07-24T12:53:28;98690.31;;;25.68;45.98
15817;BME280;8009;50.070;8.232;2023-07-24T12:55:56;98686.31;;;25.36;46.00
15817;BME280;8009;50.070;8.232;2023-07-24T12:58:24;98670.88;;;25.51;46.06
15817;BME280;8009;50.070;8.232;2023-07-24T13:00:53;98653.38;;;25.74;45.63
15817;BME280;8009;50.070;8.232;2023-07-24T13:03:21;98642.56;;;26.01;46.71
15817;BME280;8009;50.070;8.232;2023-07-24T13:05:49;98644.38;;;26.41;46.06
15817;BME280;8009;50.070;8.232;2023-07-24T13:08:20;98634.16;;;26.59;44.20
15817;BME280;8009;50.070;8.232;2023-07-24T13:10:49;98634.72;;;26.44;45.32
15817;BME280;8009;50.070;8.232;2023-07-24T13:13:17;98634.03;;;26.03;45.04
15817;BME280;8009;50.070;8.232;2023-07-24T13:15:45;98628.72;;;25.85;44.67
15817;BME280;8009;50.070;8.232;2023-07-24T13:18:16;98616.34;;;26.21;44.25
15817;BME280;8009;50.070;8.232;2023-07-24T13:20:45;98621.81;;;26.16;43.27
15817;BME280;8009;50.070;8.232;2023-07-24T13:23:13;98621.13;;;25.92;44.19
15817;BME280;8009;50.070;8.232;2023-07-24T13:25:44;98612.19;;;26.18;44.46
15817;BME280;8009;50.070;8.232;2023-07-24T13:28:12;98615.63;;;26.25;44.74
15817;BME280;8009;50.070;8.232;2023-07-24T13:30:41;98615.63;;;26.25;44.00
15817;BME280;8009;50.070;8.232;2023-07-24T13:33:09;98615.13;;;25.83;44.83
15817;BME280;8009;50.070;8.232;2023-07-24T13:35:37;98611.09;;;26.19;45.04
15817;BME280;8009;50.070;8.232;2023-07-24T13:38:06;98613.50;;;25.99;45.35
15817;BME280;8009;50.070;8.232;2023-07-24T13:40:35;98602.41;;;25.82;46.01
15817;BME280;8009;50.070;8.232;2023-07-24T13:43:05;98587.44;;;25.95;45.83
15817;BME280;8009;50.070;8.232;2023-07-24T13:45:34;98599.81;;;25.64;46.77
15817;BME280;8009;50.070;8.232;2023-07-24T13:48:03;98595.78;;;25.83;46.98
15817;BME280;8009;50.070;8.232;2023-07-24T13:50:35;98596.59;;;25.38;48.16
15817;BME280;8009;50.070;8.232;2023-07-24T13:53:03;98582.09;;;25.76;48.52
15817;BME280;8009;50.070;8.232;2023-07-24T13:55:31;98579.00;;;25.73;48.19
15817;BME280;8009;50.070;8.232;2023-07-24T13:58:00;98591.31;;;25.65;48.29
15817;BME280;8009;50.070;8.232;2023-07-24T14:00:31;98589.78;;;25.58;48.28
15817;BME280;8009;50.070;8.232;2023-07-24T14:02:59;98573.81;;;25.76;47.92
15817;BME280;8009;50.070;8.232;2023-07-24T14:08:53;98593.38;;;25.58;48.85
15817;BME280;8009;50.070;8.232;2023-07-24T14:17:41;98601.84;;;25.11;51.60
15817;BME280;8009;50.070;8.232;2023-07-24T14:36:16;98598.41;;;24.80;55.64
15817;BME280;8009;50.070;8.232;2023-07-24T14:51:25;98567.84;;;25.11;52.88
15817;BME280;8009;50.070;8.232;2023-07-24T14:53:55;98569.38;;;25.07;52.36
15817;BME280;8009;50.070;8.232;2023-07-24T14:56:23;98576.47;;;25.02;50.72
15817;BME280;8009;50.070;8.232;2023-07-24T14:58:52;98576.50;;;24.91;50.34
15817;BME280;8009;50.070;8.232;2023-07-24T15:01:21;98571.59;;;24.93;50.76
15817;BME280;8009;50.070;8.232;2023-07-24T15:03:51;98562.28;;;24.70;49.58
15817;BME280;8009;50.070;8.232;2023-07-24T15:06:20;98552.38;;;24.98;48.64
15817;BME280;8009;50.070;8.232;2023-07-24T15:08:52;98562.56;;;24.97;48.78
15817;BME280;8009;50.070;8.232;2023-07-24T15:11:24;98558.63;;;25.34;48.83
15817;BME280;8009;50.070;8.232;2023-07-24T15:13:55;98559.66;;;25.44;49.61
15817;BME280;8009;50.070;8.232;2023-07-24T15:16:23;98565.72;;;25.41;48.93
15817;BME280;8009;50.070;8.232;2023-07-24T15:18:51;98564.97;;;24.94;48.82
15817;BME280;8009;50.070;8.232;2023-07-24T15:21:20;98563.09;;;25.35;47.86